Etusivu
METAR-TAF:

METAR-TAF

Lentoasemat :

Vicksburg Tallulah Regional Airport

Tallulah / Vicksburg, Louisiana, Yhdysvallat

Leveyspiiri: 32-20-53N, Pituuspiiri: 091-01-48W, korkeus merenpinnasta: 26 m

Tämänhetkinen sää

Tämä raportti tehtiin 11 minuuttia sitten, kello 04.53 UTC
tyyntä
Lämpötila 8°C
Kosteus 71%
Ilmanpaine 1019 hPa
Näkyvyys: 16.1 km
Muutamia pilviä 11000 ft:n korkeudessa

METAR: KTVR 260453Z AUTO 00000KT 10SM FEW110 08/03 A3010 RMK AO2 SLP200 T00830033

Aika: 23:04 (05:04 UTC)


TAF: puuttuu

Säähavainnot ja -ennusteet yli 4000 lentoasemalta (METAR- ja TAF-raportit).

Käytössä olevat sääasemat on merkitty karttaan keltaisilla ja punaisilla pisteillä.

Aseta hiiri pisteen päälle nähdäksesi sääaseman nimen.

Klikkaa sitten nähdäksesi säähavainnot ja -ennusteet.

Kartan vaihtaminen: klikkaa mustalla rastilla varustettuja vihreitä pisteitä, niin voit zoomata sisään; viivalla varustettua vihreää pistettä, niin voit zoomata ulos tai vihreitä nuolia, niin pääset viereisille kartoille.


METAR-TAF: